Time;durP1;ratioP1;P1;durP2;ratioP2;P2;SDS_P1;SDS_P2;PMS_P1;PMS_P2;Temp;Humidity;BMP_temperature;BMP_pressure;BME280_temperature;BME280_humidity;BME280_pressure;Samples;Min_cycle;Max_cycle;Signal;HPM_P1;HPM_P2
2023/01/31 00:04:11;;;;;;;42.22;28.15;;;;;;;;;;10121259;28;20557;-67
2023/01/31 00:09:05;;;;;;;42.67;30.58;;;;;;;;;;10122156;28;20067;-67
2023/01/31 00:14:00;;;;;;;38.67;27.80;;;;;;;;;;10145462;28;20053;-67
2023/01/31 00:18:55;;;;;;;42.50;30.15;;;;;;;;;;10129102;28;20053;-67
2023/01/31 00:23:48;;;;;;;42.58;27.65;;;;;;;;;;10123172;28;20063;-67
2023/01/31 00:28:43;;;;;;;44.55;31.23;;;;;;;;;;10096668;28;20061;-67
2023/01/31 00:33:36;;;;;;;45.50;32.97;;;;;;;;;;10101003;28;20048;-67
2023/01/31 00:38:30;;;;;;;45.88;30.15;;;;;;;;;;10131779;28;20067;-67
2023/01/31 00:43:23;;;;;;;45.97;31.58;;;;;;;;;;10128897;28;20049;-67
2023/01/31 00:48:16;;;;;;;45.03;30.77;;;;;;;;;;10127525;28;20056;-67
2023/01/31 00:53:10;;;;;;;50.78;31.67;;;;;;;;;;10103610;28;20057;-67
2023/01/31 00:58:03;;;;;;;47.83;32.53;;;;;;;;;;10127822;28;20055;-68
2023/01/31 01:02:57;;;;;;;51.53;35.38;;;;;;;;;;10142175;28;20048;-68
2023/01/31 01:07:50;;;;;;;45.90;32.58;;;;;;;;;;10122221;28;20049;-68
2023/01/31 01:12:43;;;;;;;44.25;30.77;;;;;;;;;;10115528;28;20151;-68
2023/01/31 01:17:38;;;;;;;52.53;35.45;;;;;;;;;;10111385;28;20148;-68
2023/01/31 01:22:33;;;;;;;54.35;33.42;;;;;;;;;;10099470;28;20045;-67
2023/01/31 01:27:26;;;;;;;48.97;34.50;;;;;;;;;;10127664;28;20418;-68
2023/01/31 01:32:19;;;;;;;49.75;34.55;;;;;;;;;;10123277;28;20079;-69
2023/01/31 01:37:18;;;;;;;52.60;37.33;;;;;;;;;;10128645;28;20059;-67
2023/01/31 01:42:16;;;;;;;47.95;35.75;;;;;;;;;;10149216;28;20048;-68
2023/01/31 01:47:26;;;;;;;47.13;32.28;;;;;;;;;;10174152;28;20461;-68
2023/01/31 01:52:22;;;;;;;42.95;31.25;;;;;;;;;;10147779;28;20412;-68
2023/01/31 01:57:18;;;;;;;44.80;33.28;;;;;;;;;;10120759;28;20063;-68
2023/01/31 02:02:15;;;;;;;47.90;30.27;;;;;;;;;;10137062;28;20131;-68
2023/01/31 02:07:10;;;;;;;43.75;27.20;;;;;;;;;;10142014;28;20390;-68
2023/01/31 02:12:06;;;;;;;42.97;27.80;;;;;;;;;;10143626;28;20106;-67
2023/01/31 02:16:59;;;;;;;43.55;28.55;;;;;;;;;;10116940;28;20416;-68
2023/01/31 02:21:58;;;;;;;38.17;29.02;;;;;;;;;;10115026;28;20059;-67
2023/01/31 02:27:16;;;;;;;43.55;29.25;;;;;;;;;;10096557;28;20052;-67
2023/01/31 02:32:21;;;;;;;44.03;32.60;;;;;;;;;;10127810;28;20135;-67
2023/01/31 02:37:23;;;;;;;42.25;30.83;;;;;;;;;;10126721;28;20062;-67
2023/01/31 02:42:32;;;;;;;;;;;;;;;;;;10120585;28;20059;-67
2023/01/31 02:47:30;;;;;;;42.72;29.65;;;;;;;;;;10122700;28;19921;-67
2023/01/31 02:52:32;;;;;;;38.72;26.90;;;;;;;;;;10099203;28;20167;-68
2023/01/31 02:57:29;;;;;;;32.10;27.10;;;;;;;;;;10099765;28;20578;-68
2023/01/31 03:02:24;;;;;;;33.72;27.25;;;;;;;;;;10101498;28;20056;-68
2023/01/31 03:07:21;;;;;;;37.70;26.95;;;;;;;;;;10099259;28;20525;-67
2023/01/31 03:12:22;;;;;;;32.22;25.65;;;;;;;;;;10117980;28;20052;-68
2023/01/31 03:17:37;;;;;;;42.40;29.25;;;;;;;;;;10111144;28;20713;-68
2023/01/31 03:22:33;;;;;;;39.83;29.05;;;;;;;;;;10128249;28;20052;-68
2023/01/31 03:27:28;;;;;;;46.75;30.10;;;;;;;;;;10117965;28;20047;-68
2023/01/31 03:32:30;;;;;;;40.03;28.98;;;;;;;;;;10126454;28;20049;-67
2023/01/31 03:37:48;;;;;;;43.35;30.50;;;;;;;;;;10114687;28;20058;-68
2023/01/31 03:42:52;;;;;;;42.17;28.90;;;;;;;;;;10097248;28;20040;-67
2023/01/31 03:47:49;;;;;;;35.80;27.67;;;;;;;;;;10108315;28;20056;-68
2023/01/31 03:52:49;;;;;;;42.42;30.23;;;;;;;;;;10106037;28;20089;-68
2023/01/31 03:57:42;;;;;;;;;;;;;;;;;;10111540;28;20068;-68
2023/01/31 04:02:36;;;;;;;41.58;30.83;;;;;;;;;;10104967;28;20296;-68
2023/01/31 04:07:30;;;;;;;46.90;29.55;;;;;;;;;;10089732;28;20068;-68
2023/01/31 04:12:27;;;;;;;46.47;30.75;;;;;;;;;;10089276;28;20045;-68
2023/01/31 04:17:27;;;;;;;39.53;28.83;;;;;;;;;;10107802;28;20060;-68
2023/01/31 04:22:20;;;;;;;47.35;31.83;;;;;;;;;;10113132;28;20048;-68
2023/01/31 04:27:14;;;;;;;39.83;28.75;;;;;;;;;;10134519;28;20048;-68
2023/01/31 04:32:06;;;;;;;44.72;27.35;;;;;;;;;;10115740;28;20067;-67
2023/01/31 04:37:00;;;;;;;39.08;28.70;;;;;;;;;;10136165;28;20059;-67
2023/01/31 04:41:53;;;;;;;31.58;23.92;;;;;;;;;;10125224;28;20099;-67
2023/01/31 04:46:47;;;;;;;35.65;26.15;;;;;;;;;;10144516;28;20155;-67
2023/01/31 04:51:40;;;;;;;32.40;24.73;;;;;;;;;;10163333;28;20056;-67
2023/01/31 04:56:34;;;;;;;39.88;25.52;;;;;;;;;;10152576;28;20051;-67
2023/01/31 05:01:28;;;;;;;35.67;22.73;;;;;;;;;;10148457;28;20135;-68
2023/01/31 05:06:22;;;;;;;35.60;24.75;;;;;;;;;;10149525;28;20492;-67
2023/01/31 05:11:15;;;;;;;37.33;23.48;;;;;;;;;;10134930;28;20048;-68
2023/01/31 05:16:10;;;;;;;37.65;25.45;;;;;;;;;;10139940;28;20056;-68
2023/01/31 05:21:05;;;;;;;35.15;27.90;;;;;;;;;;10130459;28;20049;-68
2023/01/31 05:25:58;;;;;;;35.22;25.88;;;;;;;;;;10112152;28;20057;-67
2023/01/31 05:30:52;;;;;;;33.38;22.60;;;;;;;;;;10112043;28;20037;-68
2023/01/31 05:36:06;;;;;;;32.60;23.60;;;;;;;;;;10113066;28;20418;-67
2023/01/31 05:40:59;;;;;;;31.15;22.88;;;;;;;;;;10106106;28;20049;-67
2023/01/31 05:45:53;;;;;;;40.28;25.95;;;;;;;;;;10125923;28;20045;-68
2023/01/31 05:50:49;;;;;;;30.23;21.80;;;;;;;;;;10132890;28;20059;-68
2023/01/31 05:55:43;;;;;;;39.45;22.45;;;;;;;;;;10151969;28;20473;-68
2023/01/31 06:00:36;;;;;;;41.75;27.15;;;;;;;;;;10129731;28;20049;-67
2023/01/31 06:05:30;;;;;;;40.80;28.52;;;;;;;;;;10141639;28;20485;-67
2023/01/31 06:10:23;;;;;;;38.67;25.45;;;;;;;;;;10143640;28;20128;-68
2023/01/31 06:15:17;;;;;;;38.28;26.52;;;;;;;;;;10140175;28;20048;-68
2023/01/31 06:20:12;;;;;;;33.15;24.45;;;;;;;;;;10142145;28;20051;-68
2023/01/31 06:25:07;;;;;;;36.45;25.20;;;;;;;;;;10127958;28;20535;-70
2023/01/31 06:30:00;;;;;;;35.35;24.23;;;;;;;;;;10162989;28;20054;-67
2023/01/31 06:34:54;;;;;;;38.40;28.20;;;;;;;;;;10167729;28;20057;-66
2023/01/31 06:39:56;;;;;;;33.67;23.77;;;;;;;;;;10132926;28;20127;-67
2023/01/31 06:44:56;;;;;;;35.03;23.58;;;;;;;;;;10144518;28;20721;-67
2023/01/31 06:49:53;;;;;;;36.80;27.13;;;;;;;;;;10151739;28;20068;-67
2023/01/31 06:54:47;;;;;;;41.25;28.00;;;;;;;;;;10132551;28;20050;-67
2023/01/31 06:59:40;;;;;;;38.42;28.73;;;;;;;;;;10146683;28;20055;-70
2023/01/31 07:04:35;;;;;;;43.95;27.58;;;;;;;;;;10145564;28;20382;-72
2023/01/31 07:09:28;;;;;;;35.40;25.63;;;;;;;;;;10121714;28;20056;-68
2023/01/31 07:14:22;;;;;;;44.30;25.13;;;;;;;;;;10133805;28;20054;-71
2023/01/31 07:19:15;;;;;;;37.72;24.75;;;;;;;;;;10122249;28;20507;-70
2023/01/31 07:24:08;;;;;;;39.47;26.90;;;;;;;;;;10139232;28;20055;-74
2023/01/31 07:29:02;;;;;;;37.83;27.77;;;;;;;;;;10124429;28;20056;-76
2023/01/31 07:33:56;;;;;;;37.35;25.63;;;;;;;;;;10132963;28;20056;-77
2023/01/31 07:38:49;;;;;;;34.65;29.73;;;;;;;;;;10129670;28;20060;-77
2023/01/31 07:43:43;;;;;;;35.30;27.85;;;;;;;;;;10133052;28;20052;-76
2023/01/31 07:48:37;;;;;;;44.63;25.42;;;;;;;;;;10102940;28;20087;-75
2023/01/31 07:53:32;;;;;;;33.97;23.15;;;;;;;;;;10120500;28;20068;-76
2023/01/31 07:58:26;;;;;;;28.73;22.40;;;;;;;;;;10123363;28;20509;-76
2023/01/31 08:03:33;;;;;;;37.83;19.75;;;;;;;;;;10105539;28;20398;-76
2023/01/31 08:08:27;;;;;;;45.78;25.83;;;;;;;;;;10093357;28;20106;-76
2023/01/31 08:13:21;;;;;;;31.23;22.85;;;;;;;;;;10125787;28;20131;-76
2023/01/31 08:18:14;;;;;;;33.00;23.15;;;;;;;;;;10140870;28;20052;-77
2023/01/31 08:23:08;;;;;;;28.98;20.55;;;;;;;;;;10126174;28;20068;-75
2023/01/31 08:28:02;;;;;;;28.90;23.17;;;;;;;;;;10124331;28;20048;-75
2023/01/31 08:32:56;;;;;;;35.88;20.73;;;;;;;;;;10145579;28;20093;-77
2023/01/31 08:37:50;;;;;;;32.28;22.08;;;;;;;;;;10119739;28;20049;-76
2023/01/31 08:42:45;;;;;;;28.25;18.77;;;;;;;;;;10119906;28;20482;-76
2023/01/31 08:47:39;;;;;;;33.75;21.48;;;;;;;;;;10100609;28;20123;-76
2023/01/31 08:52:34;;;;;;;31.88;21.20;;;;;;;;;;10145902;28;20057;-76
2023/01/31 08:57:28;;;;;;;30.05;21.30;;;;;;;;;;10145720;28;20120;-76
2023/01/31 09:02:21;;;;;;;34.63;21.25;;;;;;;;;;10145350;28;20131;-76
2023/01/31 09:07:20;;;;;;;33.28;21.02;;;;;;;;;;10131813;28;20104;-75
2023/01/31 09:12:13;;;;;;;27.37;19.97;;;;;;;;;;10130437;28;20061;-75
2023/01/31 09:17:09;;;;;;;56.20;38.08;;;;;;;;;;10137096;28;20059;-75
2023/01/31 09:22:03;;;;;;;28.35;20.10;;;;;;;;;;10151363;28;20139;-75
2023/01/31 09:26:57;;;;;;;30.30;19.50;;;;;;;;;;10143479;28;20460;-76
2023/01/31 09:31:52;;;;;;;30.98;19.20;;;;;;;;;;10118754;28;20040;-75
2023/01/31 09:36:45;;;;;;;28.55;20.10;;;;;;;;;;10131310;28;20394;-76
2023/01/31 09:41:42;;;;;;;30.50;18.70;;;;;;;;;;10121510;28;20056;-75
2023/01/31 09:46:36;;;;;;;25.80;18.55;;;;;;;;;;10133629;28;20048;-76
2023/01/31 09:51:35;;;;;;;31.63;20.27;;;;;;;;;;10150724;28;20505;-74
2023/01/31 09:57:08;;;;;;;33.22;19.23;;;;;;;;;;10149976;28;20076;-76
2023/01/31 10:02:34;;;;;;;28.27;20.38;;;;;;;;;;10076203;28;20084;-77
2023/01/31 10:07:40;;;;;;;28.52;21.23;;;;;;;;;;10135024;28;20041;-77
2023/01/31 10:12:42;;;;;;;29.15;20.45;;;;;;;;;;10115688;28;20053;-74
2023/01/31 10:17:40;;;;;;;26.05;20.40;;;;;;;;;;10142000;28;20049;-76
2023/01/31 10:22:59;;;;;;;27.27;18.88;;;;;;;;;;10132561;28;20062;-73
2023/01/31 10:28:34;;;;;;;27.50;17.17;;;;;;;;;;10154612;28;20341;-74
2023/01/31 10:33:33;;;;;;;22.67;18.67;;;;;;;;;;10127803;28;20052;-76
2023/01/31 10:38:34;;;;;;;26.33;17.98;;;;;;;;;;10144578;28;20059;-74
2023/01/31 10:43:39;;;;;;;26.27;18.42;;;;;;;;;;10124399;28;20045;-74
2023/01/31 10:48:32;;;;;;;25.38;19.98;;;;;;;;;;10118101;28;20466;-74
2023/01/31 10:53:51;;;;;;;23.98;17.60;;;;;;;;;;10140685;28;20048;-73
2023/01/31 10:58:44;;;;;;;20.42;13.93;;;;;;;;;;10145745;28;20415;-73
2023/01/31 11:03:37;;;;;;;23.15;15.20;;;;;;;;;;10134515;28;20501;-75
2023/01/31 11:08:42;;;;;;;22.50;16.83;;;;;;;;;;10158805;28;20077;-76
2023/01/31 11:13:36;;;;;;;44.08;35.28;;;;;;;;;;10141786;28;20143;-75
2023/01/31 11:18:37;;;;;;;43.58;32.40;;;;;;;;;;10174674;28;20523;-78
2023/01/31 11:23:32;;;;;;;29.35;20.48;;;;;;;;;;10145999;28;20044;-77
2023/01/31 11:28:37;;;;;;;23.10;17.83;;;;;;;;;;10099500;28;20080;-77
2023/01/31 11:33:59;;;;;;;21.85;16.75;;;;;;;;;;10112443;28;20080;-77
2023/01/31 11:38:54;;;;;;;25.55;18.80;;;;;;;;;;10113414;28;20049;-77
2023/01/31 11:43:48;;;;;;;23.30;17.73;;;;;;;;;;10131883;28;20394;-77
2023/01/31 11:48:43;;;;;;;20.55;16.42;;;;;;;;;;10114341;28;20461;-77
2023/01/31 11:53:43;;;;;;;27.52;19.00;;;;;;;;;;10146413;28;20523;-77
2023/01/31 11:58:37;;;;;;;22.33;16.60;;;;;;;;;;10169146;28;20606;-77
2023/01/31 12:03:30;;;;;;;21.77;17.95;;;;;;;;;;10130382;28;20035;-76
2023/01/31 12:08:35;;;;;;;23.90;17.17;;;;;;;;;;10121741;28;20478;-77
2023/01/31 12:13:27;;;;;;;32.35;18.48;;;;;;;;;;10155814;28;20067;-77
2023/01/31 12:18:42;;;;;;;22.38;17.58;;;;;;;;;;10125293;28;20552;-80
2023/01/31 12:24:16;;;;;;;20.65;15.02;;;;;;;;;;10129503;28;20090;-75
2023/01/31 12:29:11;;;;;;;25.65;17.42;;;;;;;;;;10174223;28;20463;-75
2023/01/31 12:34:26;;;;;;;23.65;17.33;;;;;;;;;;10146590;28;20060;-76
2023/01/31 12:39:36;;;;;;;28.55;17.95;;;;;;;;;;10156577;28;20048;-77
2023/01/31 12:44:36;;;;;;;132.98;78.13;;;;;;;;;;10159892;28;20436;-69
2023/01/31 12:49:51;;;;;;;31.65;24.92;;;;;;;;;;10111991;28;20060;-77
2023/01/31 12:55:00;;;;;;;24.52;19.05;;;;;;;;;;10165252;28;20049;-78
2023/01/31 13:00:02;;;;;;;23.92;16.95;;;;;;;;;;10147019;28;20139;-78
2023/01/31 13:05:03;;;;;;;27.05;18.25;;;;;;;;;;10131810;28;20045;-78
2023/01/31 13:09:58;;;;;;;27.00;19.75;;;;;;;;;;10113191;28;20101;-78
2023/01/31 13:15:04;;;;;;;26.25;19.25;;;;;;;;;;10150650;28;20051;-78
2023/01/31 13:20:30;;;;;;;28.85;19.42;;;;;;;;;;10147075;28;20052;-76
2023/01/31 13:25:44;;;;;;;35.10;21.00;;;;;;;;;;10141156;28;20045;-78
2023/01/31 13:30:43;;;;;;;32.13;19.50;;;;;;;;;;10161474;28;20044;-77
2023/01/31 13:35:40;;;;;;;29.70;20.40;;;;;;;;;;10133670;28;20048;-75
2023/01/31 13:40:40;;;;;;;25.60;18.38;;;;;;;;;;10130639;28;20049;-75
2023/01/31 13:45:36;;;;;;;25.40;19.35;;;;;;;;;;10148660;28;20459;-74
2023/01/31 13:50:41;;;;;;;23.02;17.83;;;;;;;;;;10137990;28;20052;-74
2023/01/31 13:55:38;;;;;;;26.75;17.95;;;;;;;;;;10123547;28;20037;-75
2023/01/31 14:00:46;;;;;;;29.10;20.52;;;;;;;;;;10177271;28;20547;-75
2023/01/31 14:05:43;;;;;;;24.30;17.65;;;;;;;;;;10135459;28;20131;-77
2023/01/31 14:10:41;;;;;;;35.90;19.85;;;;;;;;;;10142177;28;20053;-76
2023/01/31 14:15:50;;;;;;;26.48;19.73;;;;;;;;;;10157221;28;20111;-77
2023/01/31 14:20:45;;;;;;;198.93;136.77;;;;;;;;;;10165185;28;20052;-77
2023/01/31 14:25:40;;;;;;;29.45;24.25;;;;;;;;;;10165296;28;20044;-75
2023/01/31 14:30:41;;;;;;;27.00;19.98;;;;;;;;;;10158686;28;20139;-77
2023/01/31 14:35:52;;;;;;;26.48;20.23;;;;;;;;;;10127939;28;20090;-78
2023/01/31 14:41:17;;;;;;;32.13;22.13;;;;;;;;;;10117085;28;20063;-70
2023/01/31 14:46:34;;;;;;;27.63;20.45;;;;;;;;;;10130222;28;20602;-72
2023/01/31 14:51:39;;;;;;;34.75;20.20;;;;;;;;;;10151845;28;20052;-68
2023/01/31 14:57:06;;;;;;;28.33;19.10;;;;;;;;;;10166621;28;20052;-69
2023/01/31 15:01:59;;;;;;;24.48;20.15;;;;;;;;;;10138373;28;20079;-69
2023/01/31 15:06:54;;;;;;;25.27;18.83;;;;;;;;;;10171846;28;20041;-69
2023/01/31 15:11:49;;;;;;;34.45;20.23;;;;;;;;;;10139673;28;20045;-69
2023/01/31 15:16:43;;;;;;;26.92;21.65;;;;;;;;;;10149628;28;20045;-69
2023/01/31 15:21:42;;;;;;;43.50;24.52;;;;;;;;;;10121816;28;20040;-70
2023/01/31 15:26:36;;;;;;;34.55;20.50;;;;;;;;;;10119971;28;20485;-69
2023/01/31 15:31:39;;;;;;;45.42;20.42;;;;;;;;;;10134882;28;20048;-69
2023/01/31 15:36:37;;;;;;;33.55;23.77;;;;;;;;;;10114958;28;20171;-70
2023/01/31 15:41:44;;;;;;;28.90;20.70;;;;;;;;;;10119007;28;20075;-71
2023/01/31 15:46:37;;;;;;;27.23;20.55;;;;;;;;;;10127809;28;20064;-70
2023/01/31 15:51:31;;;;;;;28.20;19.38;;;;;;;;;;10149769;28;20092;-70
2023/01/31 15:56:25;;;;;;;28.77;18.55;;;;;;;;;;10130967;28;20460;-69
2023/01/31 16:01:18;;;;;;;26.95;19.88;;;;;;;;;;10140207;28;20041;-70
2023/01/31 16:06:33;;;;;;;27.63;21.02;;;;;;;;;;10137608;28;20041;-69
2023/01/31 16:11:26;;;;;;;26.83;20.00;;;;;;;;;;10147677;28;20045;-70
2023/01/31 16:16:20;;;;;;;32.53;19.30;;;;;;;;;;10111722;28;20048;-70
2023/01/31 16:21:33;;;;;;;24.13;18.90;;;;;;;;;;10134169;28;20131;-70
2023/01/31 16:26:36;;;;;;;25.63;19.60;;;;;;;;;;10147089;28;20076;-70
2023/01/31 16:31:35;;;;;;;32.20;22.05;;;;;;;;;;10141560;28;20489;-69
2023/01/31 16:36:49;;;;;;;45.38;30.73;;;;;;;;;;10115514;28;20164;-69
2023/01/31 16:41:55;;;;;;;48.65;32.20;;;;;;;;;;10146319;28;20071;-71
2023/01/31 16:46:50;;;;;;;31.15;22.67;;;;;;;;;;10125826;28;20073;-70
2023/01/31 16:51:44;;;;;;;29.65;22.90;;;;;;;;;;10137917;28;20048;-69
2023/01/31 16:56:38;;;;;;;34.10;24.17;;;;;;;;;;10147178;28;20044;-69
2023/01/31 17:01:33;;;;;;;41.10;25.17;;;;;;;;;;10136184;28;20056;-68
2023/01/31 17:06:26;;;;;;;51.45;34.72;;;;;;;;;;10108127;28;20060;-68
2023/01/31 17:11:19;;;;;;;36.33;24.05;;;;;;;;;;10127343;28;20392;-71
2023/01/31 17:16:32;;;;;;;64.13;53.60;;;;;;;;;;10115759;28;20056;-71
2023/01/31 17:21:25;;;;;;;53.95;40.03;;;;;;;;;;10143873;28;20053;-69
2023/01/31 17:26:22;;;;;;;54.58;34.70;;;;;;;;;;10092620;28;20064;-69
2023/01/31 17:31:23;;;;;;;42.20;30.85;;;;;;;;;;10113309;28;20053;-70
2023/01/31 17:36:17;;;;;;;56.03;34.22;;;;;;;;;;10134556;28;20041;-69
2023/01/31 17:41:16;;;;;;;51.10;35.97;;;;;;;;;;10158730;28;20132;-69
2023/01/31 17:46:19;;;;;;;66.90;48.47;;;;;;;;;;10157530;28;20041;-69
2023/01/31 17:51:13;;;;;;;59.08;42.47;;;;;;;;;;10168579;28;20064;-69
2023/01/31 17:56:07;;;;;;;45.78;31.75;;;;;;;;;;10138015;28;20099;-75
2023/01/31 18:01:00;;;;;;;39.92;31.35;;;;;;;;;;10139566;28;20045;-69
2023/01/31 18:05:53;;;;;;;44.03;30.73;;;;;;;;;;10126872;28;20088;-71
2023/01/31 18:10:47;;;;;;;58.97;39.72;;;;;;;;;;10140831;28;20098;-71
2023/01/31 18:15:41;;;;;;;49.15;35.08;;;;;;;;;;10139255;28;20107;-71
2023/01/31 18:20:39;;;;;;;55.00;36.58;;;;;;;;;;10129057;28;20052;-71
2023/01/31 18:25:32;;;;;;;49.55;37.40;;;;;;;;;;10130298;28;20048;-71
2023/01/31 18:30:26;;;;;;;50.42;33.20;;;;;;;;;;10127082;28;20049;-71
2023/01/31 18:35:20;;;;;;;48.83;31.98;;;;;;;;;;10130129;28;20057;-71
2023/01/31 18:40:14;;;;;;;46.67;31.85;;;;;;;;;;10125753;28;20044;-71
2023/01/31 18:45:09;;;;;;;58.17;37.10;;;;;;;;;;10130329;28;20437;-71
2023/01/31 18:50:04;;;;;;;61.90;39.80;;;;;;;;;;10142081;28;20049;-71
2023/01/31 18:54:57;;;;;;;56.67;36.28;;;;;;;;;;10123262;28;20048;-71
2023/01/31 18:59:51;;;;;;;41.08;28.45;;;;;;;;;;10137083;28;20215;-71
2023/01/31 19:04:44;;;;;;;43.75;29.55;;;;;;;;;;10134845;28;20042;-67
2023/01/31 19:09:38;;;;;;;42.70;30.55;;;;;;;;;;10132268;28;20523;-67
2023/01/31 19:14:33;;;;;;;45.30;31.02;;;;;;;;;;10131122;28;20064;-66
2023/01/31 19:19:28;;;;;;;50.78;35.25;;;;;;;;;;10127479;28;20049;-66
2023/01/31 19:24:24;;;;;;;50.25;36.33;;;;;;;;;;10132128;28;20060;-70
2023/01/31 19:29:18;;;;;;;49.15;38.10;;;;;;;;;;10130128;28;20590;-66
2023/01/31 19:34:11;;;;;;;53.22;36.42;;;;;;;;;;10132841;28;20124;-67
2023/01/31 19:39:06;;;;;;;48.35;36.67;;;;;;;;;;10132508;28;20512;-67
2023/01/31 19:44:00;;;;;;;50.33;35.10;;;;;;;;;;10140510;28;20045;-67
2023/01/31 19:48:55;;;;;;;54.65;38.17;;;;;;;;;;10138052;28;20040;-67
2023/01/31 19:53:49;;;;;;;58.55;39.95;;;;;;;;;;10118441;28;20083;-67
2023/01/31 19:58:42;;;;;;;60.45;42.67;;;;;;;;;;10138381;28;20127;-68
2023/01/31 20:03:35;;;;;;;57.65;41.63;;;;;;;;;;10132759;28;20144;-67
2023/01/31 20:08:30;;;;;;;56.83;42.92;;;;;;;;;;10131600;28;20138;-70
2023/01/31 20:13:27;;;;;;;41.75;33.83;;;;;;;;;;10138511;28;20400;-70
2023/01/31 20:18:22;;;;;;;40.97;30.23;;;;;;;;;;10143784;28;20045;-71
2023/01/31 20:23:27;;;;;;;33.45;27.83;;;;;;;;;;10139307;28;20493;-70
2023/01/31 20:28:28;;;;;;;32.20;24.98;;;;;;;;;;10136410;28;20067;-72
2023/01/31 20:33:22;;;;;;;32.25;25.15;;;;;;;;;;10131917;28;20056;-69
2023/01/31 20:38:19;;;;;;;36.72;25.75;;;;;;;;;;10119890;28;20068;-70
2023/01/31 20:43:12;;;;;;;37.00;28.63;;;;;;;;;;10108680;28;20094;-69
2023/01/31 20:48:08;;;;;;;41.97;29.17;;;;;;;;;;10137878;28;20049;-68
2023/01/31 20:53:20;;;;;;;35.78;28.35;;;;;;;;;;10015234;28;20050;-67
2023/01/31 20:58:14;;;;;;;37.80;28.88;;;;;;;;;;10032020;28;20116;-69
2023/01/31 21:03:08;;;;;;;43.97;29.17;;;;;;;;;;10034856;28;20084;-70
2023/01/31 21:08:02;;;;;;;39.42;30.17;;;;;;;;;;10029622;28;20132;-69
2023/01/31 21:12:56;;;;;;;54.35;35.58;;;;;;;;;;10036448;28;20108;-70
2023/01/31 21:17:49;;;;;;;53.53;37.13;;;;;;;;;;10041823;28;20124;-68
2023/01/31 21:22:42;;;;;;;38.63;29.73;;;;;;;;;;10037607;28;20056;-69
2023/01/31 21:27:35;;;;;;;37.88;27.38;;;;;;;;;;10038293;28;20411;-68
2023/01/31 21:32:29;;;;;;;35.22;27.58;;;;;;;;;;10040522;28;20175;-71
2023/01/31 21:37:22;;;;;;;46.55;32.30;;;;;;;;;;10119087;28;20117;-69
2023/01/31 21:42:15;;;;;;;37.95;29.02;;;;;;;;;;10132807;28;20049;-69
2023/01/31 21:47:09;;;;;;;44.75;33.03;;;;;;;;;;10133692;28;20734;-68
2023/01/31 21:52:02;;;;;;;45.55;31.90;;;;;;;;;;10136978;28;20131;-69
2023/01/31 21:56:55;;;;;;;35.22;26.98;;;;;;;;;;10140237;28;20039;-68
2023/01/31 22:01:47;;;;;;;34.30;20.27;;;;;;;;;;10138295;28;20080;-68
2023/01/31 22:06:41;;;;;;;20.30;17.38;;;;;;;;;;10136716;28;20053;-67
2023/01/31 22:11:34;;;;;;;20.75;16.63;;;;;;;;;;10141400;28;20052;-67
2023/01/31 22:16:28;;;;;;;24.35;19.23;;;;;;;;;;10135936;28;20059;-68
2023/01/31 22:21:26;;;;;;;21.90;15.02;;;;;;;;;;10129188;28;20053;-69
2023/01/31 22:26:34;;;;;;;20.08;15.82;;;;;;;;;;10132277;28;20045;-69
2023/01/31 22:31:28;;;;;;;19.65;13.48;;;;;;;;;;10131204;28;20064;-70
2023/01/31 22:36:23;;;;;;;19.02;13.40;;;;;;;;;;10134343;28;20056;-69
2023/01/31 22:41:17;;;;;;;22.30;16.27;;;;;;;;;;10133829;28;20055;-69
2023/01/31 22:46:16;;;;;;;19.48;14.77;;;;;;;;;;10136018;28;20413;-69
2023/01/31 22:51:13;;;;;;;18.52;15.02;;;;;;;;;;10131989;28;20093;-69
2023/01/31 22:56:15;;;;;;;18.58;16.30;;;;;;;;;;10113838;28;20072;-70
2023/01/31 23:01:17;;;;;;;20.35;14.07;;;;;;;;;;10126577;28;20057;-69
2023/01/31 23:06:12;;;;;;;19.38;12.73;;;;;;;;;;10130338;28;20052;-69
2023/01/31 23:11:10;;;;;;;20.35;13.32;;;;;;;;;;10126048;28;20485;-69
2023/01/31 23:16:07;;;;;;;21.87;15.67;;;;;;;;;;10131065;28;20051;-70
2023/01/31 23:21:08;;;;;;;27.20;17.35;;;;;;;;;;10126078;28;20458;-68
2023/01/31 23:26:02;;;;;;;24.98;16.02;;;;;;;;;;10143429;28;20051;-69
2023/01/31 23:30:56;;;;;;;15.32;12.38;;;;;;;;;;10129491;28;20045;-68
2023/01/31 23:35:49;;;;;;;22.88;12.25;;;;;;;;;;10146081;28;20571;-69
2023/01/31 23:40:42;;;;;;;17.92;11.30;;;;;;;;;;10127568;28;20072;-70
2023/01/31 23:45:35;;;;;;;15.18;12.70;;;;;;;;;;10119096;28;20051;-70
2023/01/31 23:50:29;;;;;;;14.65;12.02;;;;;;;;;;10123717;28;20517;-69
2023/01/31 23:55:23;;;;;;;15.18;11.45;;;;;;;;;;10119359;28;20068;-69
